Aeroporto :
LOGIN :

Iscrizione | Disclaimer

   EN    FR    IT 

 










Sommario :    VFR   VFR Marginale   IFR   IFR Intensivo   IFR Molto Intensivo
Visibilità : 
Base nubi : 
>= 8 km
>= 3000ft
5 / 8 km
1000 / 3000 ft
1500m / 5 km
500 / 1000 ft
800 / 1500m
200 / 500 ft
< 800m
< 200 ft
Simboli :   Temporali  Nebbia  Neve Forte  Precipitazioni Forti  Vento > 20 kt
SIGMETs :   Varie  Temporali  Ghiacco  Turbolenza  Onda orograficha  Ceneri Vulcaniche






- Altitudine del aeroporto : 1247 ft
- Codice IATA : PRG


LKPR - Praha Ruzyne

ULTIMO METAR :
  • 130900Z 25004KT 8000 -RA FEW003 OVC033 02/01 Q1003 NOSIG

METARs OBSOLETI :
  • 130830Z 26004KT 8000 -RA FEW013 SCT018 OVC043 02/01 Q1003 NOSIG
  • 130800Z 27006KT 8000 -RA FEW007 OVC037 01/01 Q1003 NOSIG
  • 130730Z 25006KT 9000 -RASN FEW030 SCT046 01/01 Q1003 NOSIG
  • 130700Z 25005KT 9000 -RASN FEW029 BKN038 01/00 Q1003 NOSIG

TAF TAF LKPR
Valido dal 13 a 06 ore il 14 a 12 ore UTC


130500Z 1306/1412 27008KT 9999 BKN025
TEMPO 1306/1320 7000 RA BKN012
PROB30
TEMPO 1306/1312 3000 RASN BR BKN005
BECMG 1322/1402 CAVOK
BECMG 1402/1406 12008KT



MetMap, La meteo Aeronautica in un colpo d'occhio ! - Copyright ORBIFLY Dicembre 2007 - Disclaimer

ORBIFLY MET'MAP TEAM :

Programmazione e sviluppo : Alexandra Zaïnal
Concezione e sviluppo : Baudouin d'Aumeries
Co-Programmazione e sviluppo : Marc-Olivier Méhu
Supporto tecnico e logistico : Manuel Goepfert
Aiuto per la traduzione : Arnaldo La Scala

Contatto : metmap@orbifly.com




FONTI E CREDITI :

   NOAA